sensor_id;sensor_type;location;lat;lon;timestamp;pressure;altitude;pressure_sealevel;temperature;humidity
71361;BME280;59166;48.908;1.870;2023-02-16T00:04:43;101335.41;;;7.24;86.84
71361;BME280;59166;48.908;1.870;2023-02-16T00:09:43;101329.22;;;7.23;87.23
71361;BME280;59166;48.908;1.870;2023-02-16T00:14:45;101324.88;;;7.22;87.37
71361;BME280;59166;48.908;1.870;2023-02-16T00:19:46;101326.94;;;7.20;87.61
71361;BME280;59166;48.908;1.870;2023-02-16T00:24:46;101323.03;;;7.16;87.46
71361;BME280;59166;48.908;1.870;2023-02-16T00:29:48;101316.66;;;7.11;87.65
71361;BME280;59166;48.908;1.870;2023-02-16T00:34:49;101300.97;;;7.08;87.96
71361;BME280;59166;48.908;1.870;2023-02-16T00:39:50;101305.94;;;7.04;87.70
71361;BME280;59166;48.908;1.870;2023-02-16T00:44:54;101306.78;;;6.98;87.63
71361;BME280;59166;48.908;1.870;2023-02-16T00:49:55;101298.75;;;6.92;88.12
71361;BME280;59166;48.908;1.870;2023-02-16T00:54:56;101300.41;;;6.86;88.86
71361;BME280;59166;48.908;1.870;2023-02-16T01:00:00;101304.16;;;6.78;89.13
71361;BME280;59166;48.908;1.870;2023-02-16T01:05:01;101290.53;;;6.80;89.61
71361;BME280;59166;48.908;1.870;2023-02-16T01:10:02;101287.66;;;6.82;89.39
71361;BME280;59166;48.908;1.870;2023-02-16T01:15:09;101280.63;;;6.81;89.73
71361;BME280;59166;48.908;1.870;2023-02-16T01:20:14;101278.13;;;6.79;90.37
71361;BME280;59166;48.908;1.870;2023-02-16T01:25:15;101278.75;;;6.81;90.23
71361;BME280;59166;48.908;1.870;2023-02-16T01:30:19;101278.75;;;6.81;90.40
71361;BME280;59166;48.908;1.870;2023-02-16T01:35:21;101277.69;;;6.82;91.44
71361;BME280;59166;48.908;1.870;2023-02-16T01:40:29;101278.53;;;6.83;90.96
71361;BME280;59166;48.908;1.870;2023-02-16T01:45:39;101262.66;;;6.81;91.38
71361;BME280;59166;48.908;1.870;2023-02-16T01:50:47;101270.06;;;6.79;91.72
71361;BME280;59166;48.908;1.870;2023-02-16T01:55:54;101269.25;;;6.78;93.00
71361;BME280;59166;48.908;1.870;2023-02-16T02:01:36;101265.75;;;6.78;92.94
71361;BME280;59166;48.908;1.870;2023-02-16T02:06:37;101261.81;;;6.81;93.72
71361;BME280;59166;48.908;1.870;2023-02-16T02:11:41;101252.34;;;6.78;94.05
71361;BME280;59166;48.908;1.870;2023-02-16T02:16:54;101263.06;;;6.78;94.50
71361;BME280;59166;48.908;1.870;2023-02-16T02:22:13;101252.09;;;6.80;94.19
71361;BME280;59166;48.908;1.870;2023-02-16T02:27:21;101249.66;;;6.78;94.02
71361;BME280;59166;48.908;1.870;2023-02-16T02:32:32;101242.00;;;6.68;95.13
71361;BME280;59166;48.908;1.870;2023-02-16T02:37:45;101239.56;;;6.67;95.14
71361;BME280;59166;48.908;1.870;2023-02-16T02:42:56;101231.94;;;6.64;95.43
71361;BME280;59166;48.908;1.870;2023-02-16T02:48:00;101219.53;;;6.63;95.78
71361;BME280;59166;48.908;1.870;2023-02-16T02:53:05;101225.31;;;6.60;96.00
71361;BME280;59166;48.908;1.870;2023-02-16T02:58:09;101220.59;;;6.55;96.32
71361;BME280;59166;48.908;1.870;2023-02-16T03:03:14;101228.88;;;6.54;96.69
71361;BME280;59166;48.908;1.870;2023-02-16T03:08:21;101215.66;;;6.46;97.43
71361;BME280;59166;48.908;1.870;2023-02-16T03:13:27;101221.66;;;6.48;97.35
71361;BME280;59166;48.908;1.870;2023-02-16T03:18:32;101206.34;;;6.42;97.78
71361;BME280;59166;48.908;1.870;2023-02-16T03:23:36;101214.22;;;6.37;97.93
71361;BME280;59166;48.908;1.870;2023-02-16T03:28:42;101207.19;;;6.36;98.13
71361;BME280;59166;48.908;1.870;2023-02-16T03:33:44;101209.28;;;6.34;98.89
71361;BME280;59166;48.908;1.870;2023-02-16T03:38:46;101213.81;;;6.33;98.91
71361;BME280;59166;48.908;1.870;2023-02-16T03:43:48;101212.38;;;6.31;99.87
71361;BME280;59166;48.908;1.870;2023-02-16T03:48:49;101220.00;;;6.34;100.00
71361;BME280;59166;48.908;1.870;2023-02-16T03:53:50;101214.66;;;6.34;100.00
71361;BME280;59166;48.908;1.870;2023-02-16T03:58:52;101209.28;;;6.27;100.00
71361;BME280;59166;48.908;1.870;2023-02-16T04:03:52;101199.78;;;6.31;100.00
71361;BME280;59166;48.908;1.870;2023-02-16T04:08:53;101207.00;;;6.31;100.00
71361;BME280;59166;48.908;1.870;2023-02-16T04:13:55;101202.84;;;6.35;100.00
71361;BME280;59166;48.908;1.870;2023-02-16T04:18:56;101204.75;;;6.34;100.00
71361;BME280;59166;48.908;1.870;2023-02-16T04:23:56;101210.91;;;6.35;100.00
71361;BME280;59166;48.908;1.870;2023-02-16T04:28:58;101207.81;;;6.38;100.00
71361;BME280;59166;48.908;1.870;2023-02-16T04:33:59;101208.44;;;6.40;100.00
71361;BME280;59166;48.908;1.870;2023-02-16T04:38:59;101207.59;;;6.46;100.00
71361;BME280;59166;48.908;1.870;2023-02-16T04:44:02;101213.19;;;6.51;100.00
71361;BME280;59166;48.908;1.870;2023-02-16T04:49:02;101214.81;;;6.52;100.00
71361;BME280;59166;48.908;1.870;2023-02-16T04:54:03;101218.56;;;6.51;100.00
71361;BME280;59166;48.908;1.870;2023-02-16T04:59:05;101217.31;;;6.47;100.00
71361;BME280;59166;48.908;1.870;2023-02-16T05:04:06;101223.72;;;6.46;100.00
71361;BME280;59166;48.908;1.870;2023-02-16T05:09:07;101216.66;;;6.45;100.00
71361;BME280;59166;48.908;1.870;2023-02-16T05:14:17;101220.00;;;6.47;100.00
71361;BME280;59166;48.908;1.870;2023-02-16T05:19:17;101203.91;;;6.47;100.00
71361;BME280;59166;48.908;1.870;2023-02-16T05:24:18;101211.72;;;6.48;100.00
71361;BME280;59166;48.908;1.870;2023-02-16T05:29:20;101203.47;;;6.50;100.00
71361;BME280;59166;48.908;1.870;2023-02-16T05:34:21;101205.31;;;6.49;100.00
71361;BME280;59166;48.908;1.870;2023-02-16T05:39:21;101206.34;;;6.48;100.00
71361;BME280;59166;48.908;1.870;2023-02-16T05:44:24;101216.06;;;6.49;100.00
71361;BME280;59166;48.908;1.870;2023-02-16T05:49:24;101213.19;;;6.51;100.00
71361;BME280;59166;48.908;1.870;2023-02-16T05:54:25;101218.94;;;6.54;100.00
71361;BME280;59166;48.908;1.870;2023-02-16T05:59:27;101217.50;;;6.52;100.00
71361;BME280;59166;48.908;1.870;2023-02-16T06:04:28;101217.50;;;6.52;100.00
71361;BME280;59166;48.908;1.870;2023-02-16T06:09:28;101217.50;;;6.52;100.00
71361;BME280;59166;48.908;1.870;2023-02-16T06:14:30;101225.78;;;6.50;100.00
71361;BME280;59166;48.908;1.870;2023-02-16T06:19:31;101235.84;;;6.55;100.00
71361;BME280;59166;48.908;1.870;2023-02-16T06:24:32;101236.28;;;6.52;100.00
71361;BME280;59166;48.908;1.870;2023-02-16T06:29:34;101240.44;;;6.54;100.00
71361;BME280;59166;48.908;1.870;2023-02-16T06:34:34;101234.44;;;6.52;100.00
71361;BME280;59166;48.908;1.870;2023-02-16T06:39:35;101239.59;;;6.54;100.00
71361;BME280;59166;48.908;1.870;2023-02-16T06:44:37;101259.00;;;6.49;100.00
71361;BME280;59166;48.908;1.870;2023-02-16T06:49:38;101258.81;;;6.51;100.00
71361;BME280;59166;48.908;1.870;2023-02-16T06:54:38;101268.50;;;6.52;100.00
71361;BME280;59166;48.908;1.870;2023-02-16T06:59:40;101277.19;;;6.54;100.00
71361;BME280;59166;48.908;1.870;2023-02-16T07:04:41;101284.81;;;6.50;100.00
71361;BME280;59166;48.908;1.870;2023-02-16T07:09:41;101291.03;;;6.51;100.00
71361;BME280;59166;48.908;1.870;2023-02-16T07:14:43;101291.63;;;6.53;100.00
71361;BME280;59166;48.908;1.870;2023-02-16T07:19:44;101287.25;;;6.58;100.00
71361;BME280;59166;48.908;1.870;2023-02-16T07:24:45;101291.00;;;6.64;100.00
71361;BME280;59166;48.908;1.870;2023-02-16T07:29:47;101288.06;;;6.65;100.00
71361;BME280;59166;48.908;1.870;2023-02-16T07:34:47;101290.97;;;6.70;100.00
71361;BME280;59166;48.908;1.870;2023-02-16T07:39:48;101290.94;;;6.77;100.00
71361;BME280;59166;48.908;1.870;2023-02-16T07:44:50;101297.16;;;6.78;100.00
71361;BME280;59166;48.908;1.870;2023-02-16T07:49:50;101309.53;;;6.78;100.00
71361;BME280;59166;48.908;1.870;2023-02-16T07:54:51;101310.97;;;6.88;100.00
71361;BME280;59166;48.908;1.870;2023-02-16T07:59:54;101309.69;;;6.90;100.00
71361;BME280;59166;48.908;1.870;2023-02-16T08:04:54;101310.53;;;6.91;100.00
71361;BME280;59166;48.908;1.870;2023-02-16T08:09:55;101305.34;;;6.96;100.00
71361;BME280;59166;48.908;1.870;2023-02-16T08:14:57;101305.97;;;6.98;100.00
71361;BME280;59166;48.908;1.870;2023-02-16T08:19:58;101296.22;;;7.03;100.00
71361;BME280;59166;48.908;1.870;2023-02-16T08:24:58;101296.78;;;7.18;100.00
71361;BME280;59166;48.908;1.870;2023-02-16T08:30:00;101287.59;;;7.39;100.00
71361;BME280;59166;48.908;1.870;2023-02-16T08:35:01;101289.19;;;7.47;100.00
71361;BME280;59166;48.908;1.870;2023-02-16T08:40:02;101287.28;;;7.54;100.00
71361;BME280;59166;48.908;1.870;2023-02-16T08:45:05;101286.81;;;7.63;100.00
71361;BME280;59166;48.908;1.870;2023-02-16T08:50:06;101294.28;;;7.61;100.00
71361;BME280;59166;48.908;1.870;2023-02-16T08:55:07;101293.19;;;7.69;100.00
71361;BME280;59166;48.908;1.870;2023-02-16T09:00:11;101305.78;;;7.75;100.00
71361;BME280;59166;48.908;1.870;2023-02-16T09:05:12;101322.44;;;7.84;100.00
71361;BME280;59166;48.908;1.870;2023-02-16T09:10:12;101327.16;;;7.95;100.00
71361;BME280;59166;48.908;1.870;2023-02-16T09:15:14;101357.47;;;8.08;100.00
71361;BME280;59166;48.908;1.870;2023-02-16T09:20:15;101357.94;;;8.30;100.00
71361;BME280;59166;48.908;1.870;2023-02-16T09:25:16;101346.81;;;8.45;100.00
71361;BME280;59166;48.908;1.870;2023-02-16T09:30:18;101342.50;;;8.62;100.00
71361;BME280;59166;48.908;1.870;2023-02-16T09:35:18;101333.56;;;8.86;100.00
71361;BME280;59166;48.908;1.870;2023-02-16T09:40:19;101340.50;;;9.00;100.00
71361;BME280;59166;48.908;1.870;2023-02-16T09:45:22;101337.47;;;9.08;100.00
71361;BME280;59166;48.908;1.870;2023-02-16T09:50:26;101343.16;;;9.18;100.00
71361;BME280;59166;48.908;1.870;2023-02-16T09:55:32;101336.91;;;9.24;100.00
71361;BME280;59166;48.908;1.870;2023-02-16T10:00:47;101340.72;;;9.35;100.00
71361;BME280;59166;48.908;1.870;2023-02-16T10:05:54;101334.53;;;9.46;100.00
71361;BME280;59166;48.908;1.870;2023-02-16T10:11:01;101340.28;;;9.50;100.00
71361;BME280;59166;48.908;1.870;2023-02-16T10:16:12;101347.03;;;9.59;100.00
71361;BME280;59166;48.908;1.870;2023-02-16T10:21:18;101347.59;;;9.79;100.00
71361;BME280;59166;48.908;1.870;2023-02-16T10:26:27;101359.13;;;9.98;100.00
71361;BME280;59166;48.908;1.870;2023-02-16T10:31:36;101364.56;;;10.09;100.00
71361;BME280;59166;48.908;1.870;2023-02-16T10:36:52;101369.03;;;10.27;100.00
71361;BME280;59166;48.908;1.870;2023-02-16T10:42:01;101361.53;;;10.41;98.72
71361;BME280;59166;48.908;1.870;2023-02-16T10:47:17;101358.78;;;10.70;98.75
71361;BME280;59166;48.908;1.870;2023-02-16T10:52:22;101356.88;;;11.06;97.35
71361;BME280;59166;48.908;1.870;2023-02-16T10:57:26;101366.47;;;11.25;96.38
71361;BME280;59166;48.908;1.870;2023-02-16T11:02:35;101365.75;;;11.41;96.18
71361;BME280;59166;48.908;1.870;2023-02-16T11:07:51;101363.00;;;11.53;95.28
71361;BME280;59166;48.908;1.870;2023-02-16T11:12:53;101352.16;;;11.53;95.26
71361;BME280;59166;48.908;1.870;2023-02-16T11:17:58;101345.97;;;11.69;95.10
71361;BME280;59166;48.908;1.870;2023-02-16T11:23:16;101341.22;;;11.76;93.63
71361;BME280;59166;48.908;1.870;2023-02-16T11:28:25;101343.72;;;11.77;92.24
71361;BME280;59166;48.908;1.870;2023-02-16T11:33:27;101340.28;;;11.82;92.35
71361;BME280;59166;48.908;1.870;2023-02-16T11:38:30;101338.53;;;11.76;91.26
71361;BME280;59166;48.908;1.870;2023-02-16T11:43:35;101333.25;;;12.14;90.27
71361;BME280;59166;48.908;1.870;2023-02-16T11:48:38;101322.09;;;12.61;86.86
71361;BME280;59166;48.908;1.870;2023-02-16T11:53:40;101313.09;;;12.77;84.64
71361;BME280;59166;48.908;1.870;2023-02-16T11:58:41;101304.78;;;13.00;81.29
71361;BME280;59166;48.908;1.870;2023-02-16T12:04:04;101298.63;;;12.88;79.60
71361;BME280;59166;48.908;1.870;2023-02-16T12:09:13;101292.47;;;12.93;77.37
71361;BME280;59166;48.908;1.870;2023-02-16T12:14:29;101287.53;;;12.89;78.91
71361;BME280;59166;48.908;1.870;2023-02-16T12:19:39;101284.06;;;12.94;71.15
71361;BME280;59166;48.908;1.870;2023-02-16T12:24:46;101284.19;;;13.04;65.65
71361;BME280;59166;48.908;1.870;2023-02-16T12:29:59;101288.03;;;13.30;63.25
71361;BME280;59166;48.908;1.870;2023-02-16T12:35:32;101286.50;;;13.17;59.48
71361;BME280;59166;48.908;1.870;2023-02-16T12:40:45;101299.84;;;13.67;59.37
71361;BME280;59166;48.908;1.870;2023-02-16T12:45:50;101289.94;;;13.78;61.25
71361;BME280;59166;48.908;1.870;2023-02-16T12:50:54;101288.09;;;13.62;60.34
71361;BME280;59166;48.908;1.870;2023-02-16T12:55:59;101281.94;;;13.45;61.98
71361;BME280;59166;48.908;1.870;2023-02-16T13:01:03;101275.53;;;13.77;61.78
71361;BME280;59166;48.908;1.870;2023-02-16T13:06:19;101278.28;;;13.82;61.35
71361;BME280;59166;48.908;1.870;2023-02-16T13:11:24;101266.38;;;13.62;62.49
71361;BME280;59166;48.908;1.870;2023-02-16T13:16:38;101264.78;;;13.39;63.05
71361;BME280;59166;48.908;1.870;2023-02-16T13:22:00;101255.47;;;13.30;61.87
71361;BME280;59166;48.908;1.870;2023-02-16T13:27:20;101253.41;;;13.42;62.68
71361;BME280;59166;48.908;1.870;2023-02-16T13:32:47;101256.97;;;13.69;57.57
71361;BME280;59166;48.908;1.870;2023-02-16T13:38:00;101233.97;;;13.77;59.00
71361;BME280;59166;48.908;1.870;2023-02-16T13:43:15;101223.66;;;13.79;59.24
71361;BME280;59166;48.908;1.870;2023-02-16T13:48:22;101221.03;;;13.89;61.33
71361;BME280;59166;48.908;1.870;2023-02-16T13:53:25;101215.41;;;14.01;60.39
71361;BME280;59166;48.908;1.870;2023-02-16T13:58:31;101208.31;;;13.95;59.13
71361;BME280;59166;48.908;1.870;2023-02-16T14:03:36;101201.00;;;14.00;60.21
71361;BME280;59166;48.908;1.870;2023-02-16T14:08:38;101217.38;;;14.10;59.46
71361;BME280;59166;48.908;1.870;2023-02-16T14:13:47;101205.50;;;14.21;61.90
71361;BME280;59166;48.908;1.870;2023-02-16T14:18:54;101204.09;;;14.19;63.55
71361;BME280;59166;48.908;1.870;2023-02-16T14:23:58;101202.25;;;14.24;63.24
71361;BME280;59166;48.908;1.870;2023-02-16T14:29:09;101202.28;;;14.29;63.86
71361;BME280;59166;48.908;1.870;2023-02-16T14:34:16;101199.97;;;14.06;63.13
71361;BME280;59166;48.908;1.870;2023-02-16T14:39:20;101206.16;;;13.97;63.39
71361;BME280;59166;48.908;1.870;2023-02-16T14:44:33;101214.03;;;13.98;63.55
71361;BME280;59166;48.908;1.870;2023-02-16T14:50:00;101209.97;;;14.01;62.08
71361;BME280;59166;48.908;1.870;2023-02-16T14:55:34;101200.47;;;14.03;62.61
71361;BME280;59166;48.908;1.870;2023-02-16T15:00:45;101210.22;;;13.99;62.06
71361;BME280;59166;48.908;1.870;2023-02-16T15:05:50;101210.69;;;13.86;61.92
71361;BME280;59166;48.908;1.870;2023-02-16T15:10:54;101211.63;;;13.70;62.16
71361;BME280;59166;48.908;1.870;2023-02-16T15:15:57;101213.28;;;13.71;62.62
71361;BME280;59166;48.908;1.870;2023-02-16T15:20:59;101216.09;;;13.86;62.92
71361;BME280;59166;48.908;1.870;2023-02-16T15:26:03;101221.09;;;13.99;62.07
71361;BME280;59166;48.908;1.870;2023-02-16T15:31:06;101211.19;;;13.83;64.62
71361;BME280;59166;48.908;1.870;2023-02-16T15:36:11;101210.47;;;13.66;65.00
71361;BME280;59166;48.908;1.870;2023-02-16T15:41:22;101210.16;;;13.57;65.57
71361;BME280;59166;48.908;1.870;2023-02-16T15:46:28;101215.41;;;13.42;66.11
71361;BME280;59166;48.908;1.870;2023-02-16T15:51:30;101220.75;;;13.32;65.45
71361;BME280;59166;48.908;1.870;2023-02-16T15:56:37;101219.88;;;13.26;65.84
71361;BME280;59166;48.908;1.870;2023-02-16T16:01:39;101211.44;;;13.23;66.59
71361;BME280;59166;48.908;1.870;2023-02-16T16:06:40;101210.53;;;13.17;66.28
71361;BME280;59166;48.908;1.870;2023-02-16T16:11:43;101213.97;;;13.08;66.96
71361;BME280;59166;48.908;1.870;2023-02-16T16:16:44;101213.97;;;13.08;68.28
71361;BME280;59166;48.908;1.870;2023-02-16T16:21:47;101224.81;;;13.08;69.14
71361;BME280;59166;48.908;1.870;2023-02-16T16:26:52;101214.25;;;13.06;71.00
71361;BME280;59166;48.908;1.870;2023-02-16T16:31:53;101205.19;;;13.01;71.90
71361;BME280;59166;48.908;1.870;2023-02-16T16:36:56;101206.00;;;12.96;72.51
71361;BME280;59166;48.908;1.870;2023-02-16T16:42:22;101210.28;;;12.92;73.18
71361;BME280;59166;48.908;1.870;2023-02-16T16:47:29;101212.66;;;12.88;73.72
71361;BME280;59166;48.908;1.870;2023-02-16T16:52:32;101216.63;;;12.81;74.13
71361;BME280;59166;48.908;1.870;2023-02-16T16:57:34;101219.09;;;12.82;73.90
71361;BME280;59166;48.908;1.870;2023-02-16T17:02:34;101216.50;;;12.71;75.30
71361;BME280;59166;48.908;1.870;2023-02-16T17:07:35;101214.44;;;12.56;78.17
71361;BME280;59166;48.908;1.870;2023-02-16T17:12:37;101219.03;;;12.56;78.82
71361;BME280;59166;48.908;1.870;2023-02-16T17:17:38;101212.97;;;12.49;81.11
71361;BME280;59166;48.908;1.870;2023-02-16T17:22:39;101225.38;;;12.45;82.84
71361;BME280;59166;48.908;1.870;2023-02-16T17:27:41;101232.31;;;12.35;83.91
71361;BME280;59166;48.908;1.870;2023-02-16T17:32:42;101233.88;;;12.31;85.01
71361;BME280;59166;48.908;1.870;2023-02-16T17:37:42;101237.28;;;12.27;86.01
71361;BME280;59166;48.908;1.870;2023-02-16T17:42:45;101234.53;;;12.22;87.11
71361;BME280;59166;48.908;1.870;2023-02-16T17:47:49;101244.53;;;12.21;87.60
71361;BME280;59166;48.908;1.870;2023-02-16T17:52:50;101241.72;;;12.16;88.09
71361;BME280;59166;48.908;1.870;2023-02-16T17:57:52;101242.06;;;12.20;87.67
71361;BME280;59166;48.908;1.870;2023-02-16T18:02:52;101247.81;;;12.23;87.64
71361;BME280;59166;48.908;1.870;2023-02-16T18:07:54;101242.00;;;12.15;87.76
71361;BME280;59166;48.908;1.870;2023-02-16T18:12:56;101247.91;;;12.12;88.18
71361;BME280;59166;48.908;1.870;2023-02-16T18:17:57;101253.88;;;12.14;88.11
71361;BME280;59166;48.908;1.870;2023-02-16T18:22:58;101247.63;;;12.13;88.14
71361;BME280;59166;48.908;1.870;2023-02-16T18:28:00;101248.22;;;12.15;88.31
71361;BME280;59166;48.908;1.870;2023-02-16T18:33:00;101253.22;;;12.07;88.49
71361;BME280;59166;48.908;1.870;2023-02-16T18:38:01;101245.38;;;12.05;89.26
71361;BME280;59166;48.908;1.870;2023-02-16T18:43:03;101240.75;;;12.06;89.32
71361;BME280;59166;48.908;1.870;2023-02-16T18:48:04;101252.00;;;11.98;90.32
71361;BME280;59166;48.908;1.870;2023-02-16T18:53:05;101261.28;;;12.02;90.32
71361;BME280;59166;48.908;1.870;2023-02-16T18:58:09;101257.16;;;11.99;90.54
71361;BME280;59166;48.908;1.870;2023-02-16T19:03:11;101270.97;;;11.98;91.09
71361;BME280;59166;48.908;1.870;2023-02-16T19:08:11;101269.09;;;11.98;91.38
71361;BME280;59166;48.908;1.870;2023-02-16T19:13:14;101275.50;;;11.92;91.85
71361;BME280;59166;48.908;1.870;2023-02-16T19:18:14;101270.63;;;11.94;91.97
71361;BME280;59166;48.908;1.870;2023-02-16T19:23:15;101269.25;;;11.92;92.02
71361;BME280;59166;48.908;1.870;2023-02-16T19:28:17;101265.88;;;11.84;92.52
71361;BME280;59166;48.908;1.870;2023-02-16T19:33:17;101273.16;;;11.84;93.06
71361;BME280;59166;48.908;1.870;2023-02-16T19:38:18;101276.09;;;11.82;93.73
71361;BME280;59166;48.908;1.870;2023-02-16T19:43:20;101281.69;;;11.76;93.83
71361;BME280;59166;48.908;1.870;2023-02-16T19:48:21;101287.91;;;11.76;94.03
71361;BME280;59166;48.908;1.870;2023-02-16T19:53:22;101281.13;;;11.74;94.42
71361;BME280;59166;48.908;1.870;2023-02-16T19:58:25;101288.75;;;11.77;93.96
71361;BME280;59166;48.908;1.870;2023-02-16T20:03:26;101286.88;;;11.77;93.65
71361;BME280;59166;48.908;1.870;2023-02-16T20:08:27;101300.06;;;11.74;93.88
71361;BME280;59166;48.908;1.870;2023-02-16T20:13:29;101303.81;;;11.73;94.13
71361;BME280;59166;48.908;1.870;2023-02-16T20:18:29;101300.06;;;11.74;94.04
71361;BME280;59166;48.908;1.870;2023-02-16T20:23:30;101304.56;;;11.68;94.16
71361;BME280;59166;48.908;1.870;2023-02-16T20:28:33;101301.59;;;11.70;94.31
71361;BME280;59166;48.908;1.870;2023-02-16T20:33:34;101303.75;;;11.68;94.41
71361;BME280;59166;48.908;1.870;2023-02-16T20:38:35;101303.75;;;11.68;94.30
71361;BME280;59166;48.908;1.870;2023-02-16T20:43:37;101303.16;;;11.66;94.69
71361;BME280;59166;48.908;1.870;2023-02-16T20:48:37;101305.38;;;11.69;94.60
71361;BME280;59166;48.908;1.870;2023-02-16T20:53:39;101308.06;;;11.69;94.76
71361;BME280;59166;48.908;1.870;2023-02-16T20:58:42;101316.13;;;11.64;95.17
71361;BME280;59166;48.908;1.870;2023-02-16T21:03:43;101324.47;;;11.62;95.30
71361;BME280;59166;48.908;1.870;2023-02-16T21:08:44;101314.97;;;11.60;95.79
71361;BME280;59166;48.908;1.870;2023-02-16T21:13:47;101320.47;;;11.65;95.61
71361;BME280;59166;48.908;1.870;2023-02-16T21:18:47;101315.53;;;11.62;96.03
71361;BME280;59166;48.908;1.870;2023-02-16T21:23:51;101312.03;;;11.61;96.01
71361;BME280;59166;48.908;1.870;2023-02-16T21:28:53;101330.03;;;11.56;96.65
71361;BME280;59166;48.908;1.870;2023-02-16T21:33:53;101329.19;;;11.55;96.86
71361;BME280;59166;48.908;1.870;2023-02-16T21:38:54;101330.28;;;11.54;97.28
71361;BME280;59166;48.908;1.870;2023-02-16T21:43:58;101333.81;;;11.55;97.44
71361;BME280;59166;48.908;1.870;2023-02-16T21:48:59;101332.06;;;11.49;97.76
71361;BME280;59166;48.908;1.870;2023-02-16T21:54:00;101321.22;;;11.49;98.14
71361;BME280;59166;48.908;1.870;2023-02-16T21:59:04;101328.56;;;11.48;98.66
71361;BME280;59166;48.908;1.870;2023-02-16T22:04:05;101337.47;;;11.49;98.94
71361;BME280;59166;48.908;1.870;2023-02-16T22:09:08;101324.69;;;11.44;99.92
71361;BME280;59166;48.908;1.870;2023-02-16T22:14:11;101304.31;;;11.42;100.00
71361;BME280;59166;48.908;1.870;2023-02-16T22:19:14;101310.31;;;11.44;100.00
71361;BME280;59166;48.908;1.870;2023-02-16T22:24:17;101300.00;;;11.41;100.00
71361;BME280;59166;48.908;1.870;2023-02-16T22:29:19;101307.16;;;11.35;100.00
71361;BME280;59166;48.908;1.870;2023-02-16T22:34:20;101302.50;;;11.30;100.00
71361;BME280;59166;48.908;1.870;2023-02-16T22:39:21;101298.13;;;11.29;100.00
71361;BME280;59166;48.908;1.870;2023-02-16T22:44:23;101308.72;;;11.31;100.00
71361;BME280;59166;48.908;1.870;2023-02-16T22:49:24;101297.78;;;11.26;100.00
71361;BME280;59166;48.908;1.870;2023-02-16T22:54:25;101316.84;;;11.31;100.00
71361;BME280;59166;48.908;1.870;2023-02-16T22:59:27;101311.66;;;11.29;100.00
71361;BME280;59166;48.908;1.870;2023-02-16T23:04:28;101310.59;;;11.30;100.00
71361;BME280;59166;48.908;1.870;2023-02-16T23:09:29;101304.84;;;11.27;100.00
71361;BME280;59166;48.908;1.870;2023-02-16T23:14:35;101306.38;;;11.34;100.00
71361;BME280;59166;48.908;1.870;2023-02-16T23:19:36;101303.41;;;11.36;100.00
71361;BME280;59166;48.908;1.870;2023-02-16T23:24:39;101319.91;;;11.34;100.00
71361;BME280;59166;48.908;1.870;2023-02-16T23:29:41;101317.53;;;11.38;100.00
71361;BME280;59166;48.908;1.870;2023-02-16T23:34:43;101315.13;;;11.42;100.00
71361;BME280;59166;48.908;1.870;2023-02-16T23:39:44;101320.81;;;11.40;100.00
71361;BME280;59166;48.908;1.870;2023-02-16T23:44:46;101313.03;;;11.44;100.00
71361;BME280;59166;48.908;1.870;2023-02-16T23:49:47;101319.50;;;11.43;100.00
71361;BME280;59166;48.908;1.870;2023-02-16T23:54:48;101319.50;;;11.43;100.00
71361;BME280;59166;48.908;1.870;2023-02-16T23:59:50;101314.69;;;11.45;100.00
